createdAt,value
2017-09-13T00:02:25.642Z,100441.92
2017-09-13T00:04:53.423Z,100440.05
2017-09-13T00:07:22.004Z,100436.52
2017-09-13T00:09:49.741Z,100435.53
2017-09-13T00:12:17.439Z,100430.87
2017-09-13T00:14:45.173Z,100423.58
2017-09-13T00:17:12.887Z,100418.01
2017-09-13T00:19:40.567Z,100409.66
2017-09-13T00:22:08.290Z,100408.72
2017-09-13T00:24:35.980Z,100408.64
2017-09-13T00:27:03.736Z,100401.69
2017-09-13T00:29:31.452Z,100391.05
2017-09-13T00:31:59.201Z,100387.70
2017-09-13T00:34:26.940Z,100383.68
2017-09-13T00:36:54.692Z,100376.88
2017-09-13T00:39:22.401Z,100382.70
2017-09-13T00:41:50.132Z,100381.70
2017-09-13T00:44:17.842Z,100388.75
2017-09-13T00:46:45.519Z,100384.32
2017-09-13T00:49:13.208Z,100392.89
2017-09-13T00:51:40.960Z,100389.54
2017-09-13T00:54:08.582Z,100382.33
2017-09-13T00:56:36.406Z,100380.19
2017-09-13T00:59:04.139Z,100375.94
2017-09-13T01:01:31.880Z,100372.40
2017-09-13T01:03:59.564Z,100366.84
2017-09-13T01:06:27.298Z,100361.27
2017-09-13T01:08:54.999Z,100369.84
2017-09-13T01:11:22.746Z,100366.48
2017-09-13T01:13:50.448Z,100360.84
2017-09-13T01:16:18.193Z,100357.66
2017-09-13T01:18:45.904Z,100361.23
2017-09-13T01:21:13.619Z,100362.47
2017-09-13T01:23:41.319Z,100352.25
2017-09-13T01:26:09.056Z,100344.73
2017-09-13T01:28:36.775Z,100341.54
2017-09-13T01:31:04.516Z,100345.64
2017-09-13T01:33:32.263Z,100350.11
2017-09-13T01:36:00.023Z,100346.61
2017-09-13T01:38:27.706Z,100345.22
2017-09-13T01:40:55.440Z,100335.00
2017-09-13T01:43:23.127Z,100337.30
2017-09-13T01:45:50.878Z,100328.55
2017-09-13T01:48:18.576Z,100321.86
2017-09-13T01:50:46.310Z,100316.22
2017-09-13T01:53:14.022Z,100312.57
2017-09-13T01:55:41.749Z,100309.03
2017-09-13T01:58:09.432Z,100304.30
2017-09-13T02:00:37.175Z,100302.41
2017-09-13T02:03:04.865Z,100292.59
2017-09-13T02:05:32.623Z,100286.95
2017-09-13T02:08:00.342Z,100280.59
2017-09-13T02:10:28.050Z,100277.81
2017-09-13T02:12:55.781Z,100270.45
2017-09-13T02:15:23.496Z,100269.47
2017-09-13T02:17:51.266Z,100268.30
2017-09-13T02:20:18.959Z,100263.64
2017-09-13T02:22:46.683Z,100257.58
2017-09-13T02:25:14.399Z,100251.86
2017-09-13T02:27:42.145Z,100234.60
2017-09-13T02:30:09.836Z,100226.48
2017-09-13T02:32:37.632Z,100216.28
2017-09-13T02:35:05.332Z,100226.91
2017-09-13T02:37:33.066Z,100213.23
2017-09-13T02:40:00.787Z,100219.71
2017-09-13T02:42:28.522Z,100195.33
2017-09-13T02:44:56.230Z,100190.41
2017-09-13T02:47:23.907Z,100191.47
2017-09-13T02:49:51.619Z,100177.82
2017-09-13T02:52:19.362Z,100177.48
2017-09-13T02:54:47.086Z,100154.58
2017-09-13T02:57:14.841Z,100150.98
2017-09-13T02:59:42.529Z,100142.30
2017-09-13T03:02:10.269Z,100132.30
2017-09-13T03:04:37.969Z,100118.14
2017-09-13T03:07:05.730Z,100119.10
2017-09-13T03:09:33.449Z,100111.08
2017-09-13T03:12:01.194Z,100105.99
2017-09-13T03:14:28.896Z,100108.62
2017-09-13T03:16:56.635Z,100099.55
2017-09-13T03:19:24.369Z,100102.70
2017-09-13T03:21:52.120Z,100113.22
2017-09-13T03:24:19.824Z,100108.37
2017-09-13T03:26:47.587Z,100100.51
2017-09-13T03:29:15.283Z,100096.02
2017-09-13T03:31:43.021Z,100072.66
2017-09-13T03:34:10.781Z,100065.92
2017-09-13T03:36:38.539Z,100057.00
2017-09-13T03:39:06.233Z,100051.50
2017-09-13T03:41:33.974Z,100060.35
2017-09-13T03:44:01.677Z,100050.27
2017-09-13T03:46:29.448Z,100048.43
2017-09-13T03:48:57.167Z,100049.31
2017-09-13T03:51:24.923Z,100041.44
2017-09-13T03:53:52.575Z,100043.34
2017-09-13T03:56:20.290Z,100024.48
2017-09-13T03:58:48.080Z,100015.67
2017-09-13T04:01:15.806Z,100016.97
2017-09-13T04:03:43.577Z,100021.30
2017-09-13T04:06:11.308Z,100004.84
2017-09-13T04:08:39.032Z,100001.96
2017-09-13T04:11:06.741Z,99993.51
2017-09-13T04:13:34.501Z,99991.83
2017-09-13T04:16:02.190Z,99983.37
2017-09-13T04:18:30.006Z,99980.27
2017-09-13T04:20:57.718Z,99972.44
2017-09-13T04:23:25.439Z,99962.94
2017-09-13T04:25:53.146Z,99956.60
2017-09-13T04:28:20.955Z,99954.86
2017-09-13T04:30:48.624Z,99948.04
2017-09-13T04:33:16.413Z,99939.52
2017-09-13T04:35:44.119Z,99932.20
2017-09-13T04:38:11.884Z,99930.08
2017-09-13T04:40:39.619Z,99936.02
2017-09-13T04:43:07.383Z,99945.97
2017-09-13T04:45:35.076Z,99936.78
2017-09-13T04:48:02.842Z,99947.83
2017-09-13T04:50:30.535Z,99932.97
2017-09-13T04:52:58.206Z,99923.73
2017-09-13T04:55:25.921Z,99930.08
2017-09-13T04:57:53.660Z,99920.67
2017-09-13T05:00:21.364Z,99928.02
2017-09-13T05:02:49.144Z,99918.32
2017-09-13T05:05:16.836Z,99910.72
2017-09-13T05:07:44.583Z,99902.88
2017-09-13T05:10:12.302Z,99892.06
2017-09-13T05:12:40.047Z,99885.67
2017-09-13T05:15:07.707Z,99889.38
2017-09-13T05:17:35.438Z,99889.16
2017-09-13T05:20:03.137Z,99879.83
2017-09-13T05:22:30.893Z,99879.41
2017-09-13T05:24:58.584Z,99858.98
2017-09-13T05:27:26.349Z,99863.89
2017-09-13T05:29:54.055Z,99846.03
2017-09-13T05:32:21.806Z,99828.55
2017-09-13T05:34:49.532Z,99826.83
2017-09-13T05:37:17.288Z,99829.09
2017-09-13T05:39:45.702Z,99811.15
2017-09-13T05:42:13.453Z,99797.80
2017-09-13T05:44:42.507Z,99794.59
2017-09-13T05:47:10.714Z,99776.78
2017-09-13T05:49:38.912Z,99762.28
2017-09-13T05:52:07.868Z,99761.12
2017-09-13T05:54:37.206Z,99756.59
2017-09-13T05:57:07.431Z,99746.67
2017-09-13T05:59:36.367Z,99729.07
2017-09-13T06:02:04.757Z,99730.92
2017-09-13T06:04:34.127Z,99710.02
2017-09-13T06:07:02.657Z,99691.58
2017-09-13T06:09:30.689Z,99676.42
2017-09-13T06:11:58.490Z,99665.63
2017-09-13T06:14:27.062Z,99653.83
2017-09-13T06:16:56.912Z,99633.25
2017-09-13T06:19:26.067Z,99626.40
2017-09-13T06:21:55.423Z,99620.63
2017-09-13T06:24:23.180Z,99617.05
2017-09-13T06:26:52.414Z,99610.30
2017-09-13T06:31:54.212Z,99594.56
2017-09-13T06:34:22.400Z,99575.59
2017-09-13T06:36:51.185Z,99578.62
2017-09-13T06:39:19.356Z,99564.91
2017-09-13T06:41:47.719Z,99561.38
2017-09-13T06:44:15.489Z,99546.45
2017-09-13T06:46:45.925Z,99536.39
2017-09-13T06:49:14.911Z,99528.31
2017-09-13T06:51:44.244Z,99524.99
2017-09-13T06:54:13.097Z,99522.53
2017-09-13T06:56:41.743Z,99517.24
2017-09-13T06:59:11.986Z,99489.49
2017-09-13T07:01:40.566Z,99483.25
2017-09-13T07:04:08.571Z,99486.61
2017-09-13T07:06:37.161Z,99467.58
2017-09-13T07:09:06.677Z,99463.92
2017-09-13T07:11:35.472Z,99458.34
2017-09-13T07:14:04.653Z,99451.98
2017-09-13T07:16:32.493Z,99449.89
2017-09-13T07:19:00.314Z,99429.83
2017-09-13T07:21:27.910Z,99428.44
2017-09-13T07:23:55.964Z,99432.08
2017-09-13T07:26:25.443Z,99419.00
2017-09-13T07:28:53.219Z,99401.14
2017-09-13T07:31:22.675Z,99393.53
2017-09-13T07:33:50.848Z,99379.20
2017-09-13T07:36:19.784Z,99381.59
2017-09-13T07:38:48.137Z,99381.63
2017-09-13T07:41:16.340Z,99369.76
2017-09-13T07:43:45.149Z,99380.81
2017-09-13T07:46:14.385Z,99387.86
2017-09-13T07:48:42.249Z,99378.37
2017-09-13T07:51:10.215Z,99388.64
2017-09-13T07:53:39.833Z,99374.59
2017-09-13T07:56:08.495Z,99369.05
2017-09-13T07:58:36.244Z,99375.07
2017-09-13T08:01:03.951Z,99375.92
2017-09-13T08:03:32.189Z,99362.03
2017-09-13T08:06:00.221Z,99344.48
2017-09-13T08:08:28.388Z,99342.46
2017-09-13T08:10:56.096Z,99322.94
2017-09-13T08:13:24.237Z,99324.34
2017-09-13T08:15:52.079Z,99324.16
2017-09-13T08:18:20.935Z,99308.86
2017-09-13T08:20:49.124Z,99305.29
2017-09-13T08:23:18.054Z,99305.46
2017-09-13T08:25:46.298Z,99291.84
2017-09-13T08:28:15.555Z,99279.42
2017-09-13T08:30:44.540Z,99272.67
2017-09-13T08:33:13.180Z,99269.63
2017-09-13T08:35:40.998Z,99248.95
2017-09-13T08:38:09.631Z,99237.52
2017-09-13T08:40:38.291Z,99238.50
2017-09-13T08:43:06.301Z,99241.11
2017-09-13T08:45:34.066Z,99238.30
2017-09-13T08:48:02.207Z,99238.74
2017-09-13T08:50:30.683Z,99220.98
2017-09-13T08:52:59.851Z,99208.50
2017-09-13T08:55:28.657Z,99218.06
2017-09-13T08:57:56.379Z,99210.30
2017-09-13T09:00:24.629Z,99203.16
2017-09-13T09:05:27.929Z,99204.20
2017-09-13T09:07:57.785Z,99209.45
2017-09-13T09:10:25.591Z,99206.06
2017-09-13T09:12:53.327Z,99204.53
2017-09-13T09:15:21.573Z,99199.48
2017-09-13T09:17:49.975Z,99193.13
2017-09-13T09:20:18.823Z,99188.52
2017-09-13T09:22:47.595Z,99178.48
2017-09-13T09:25:20.413Z,99157.39
2017-09-13T09:27:48.717Z,99166.55
2017-09-13T09:30:18.608Z,99161.19
2017-09-13T09:32:46.835Z,99156.33
2017-09-13T09:35:15.102Z,99167.82
2017-09-13T09:37:43.926Z,99163.31
2017-09-13T09:40:15.194Z,99155.34
2017-09-13T09:42:43.686Z,99144.68
2017-09-13T09:45:11.491Z,99135.17
2017-09-13T09:47:40.485Z,99126.53
2017-09-13T09:50:09.332Z,99116.81
2017-09-13T09:52:37.699Z,99113.23
2017-09-13T09:55:06.256Z,99119.06
2017-09-13T09:57:34.639Z,99122.98
2017-09-13T10:00:02.507Z,99118.69
2017-09-13T10:02:30.826Z,99108.38
2017-09-13T10:04:59.334Z,99104.40
2017-09-13T10:07:27.061Z,99099.52
2017-09-13T10:09:57.305Z,99067.68
2017-09-13T10:12:25.311Z,99082.14
2017-09-13T10:14:58.551Z,99083.55
2017-09-13T10:17:27.175Z,99083.94
2017-09-13T10:19:55.687Z,99074.88
2017-09-13T10:22:27.324Z,99063.50
2017-09-13T10:24:55.938Z,99063.39
2017-09-13T10:27:23.766Z,99052.20
2017-09-13T10:29:52.900Z,99048.61
2017-09-13T10:32:20.884Z,99047.73
2017-09-13T10:34:48.676Z,99049.91
2017-09-13T10:37:16.389Z,99040.27
2017-09-13T10:39:44.802Z,99040.74
2017-09-13T10:42:13.047Z,99045.01
2017-09-13T10:44:41.231Z,99033.58
2017-09-13T10:47:10.351Z,99048.66
2017-09-13T10:49:39.758Z,99040.61
2017-09-13T10:52:08.148Z,99033.80
2017-09-13T10:54:37.528Z,99035.19
2017-09-13T10:57:09.468Z,99024.73
2017-09-13T10:59:38.718Z,99029.33
2017-09-13T11:02:06.415Z,99024.66
2017-09-13T11:04:34.664Z,99022.06
2017-09-13T11:07:03.332Z,99004.44
2017-09-13T11:09:32.172Z,99015.53
2017-09-13T11:12:00.205Z,99014.13
2017-09-13T11:14:28.011Z,99021.97
2017-09-13T11:16:56.689Z,99021.59
2017-09-13T11:19:25.092Z,99010.95
2017-09-13T11:21:53.472Z,99003.98
2017-09-13T11:24:22.120Z,98979.98
2017-09-13T11:26:50.574Z,98992.45
2017-09-13T11:29:19.481Z,98992.97
2017-09-13T11:31:47.610Z,98998.39
2017-09-13T11:34:15.353Z,99014.72
2017-09-13T11:36:44.334Z,99015.77
2017-09-13T11:39:12.419Z,99016.91
2017-09-13T11:41:40.909Z,99020.63
2017-09-13T11:44:10.237Z,99004.91
2017-09-13T11:46:38.401Z,98994.66
2017-09-13T11:49:06.148Z,99006.86
2017-09-13T11:51:35.677Z,99029.36
2017-09-13T11:54:07.791Z,99065.08
2017-09-13T11:56:37.576Z,99054.41
2017-09-13T11:59:10.833Z,99051.45
2017-09-13T12:01:40.181Z,99048.08
2017-09-13T12:04:08.491Z,99040.90
2017-09-13T12:06:37.132Z,99035.23
2017-09-13T12:09:05.222Z,99051.52
2017-09-13T12:11:35.409Z,99044.88
2017-09-13T12:14:05.225Z,99041.02
2017-09-13T12:16:34.260Z,99024.26
2017-09-13T12:19:03.776Z,99017.03
2017-09-13T12:21:32.877Z,99042.42
2017-09-13T12:24:00.542Z,99036.64
2017-09-13T12:26:28.315Z,99072.84
2017-09-13T12:28:56.415Z,99059.52
2017-09-13T12:31:24.580Z,99056.03
2017-09-13T12:33:52.373Z,99072.95
2017-09-13T12:36:20.592Z,99060.03
2017-09-13T12:38:49.497Z,99055.56
2017-09-13T12:41:17.340Z,99065.85
2017-09-13T12:43:46.527Z,99076.48
2017-09-13T12:46:14.365Z,99084.25
2017-09-13T12:48:43.833Z,99081.09
2017-09-13T12:51:11.656Z,99085.36
2017-09-13T12:53:39.709Z,99081.83
2017-09-13T12:56:10.646Z,99089.30
2017-09-13T12:58:40.463Z,99087.08
2017-09-13T13:01:09.537Z,99096.89
2017-09-13T13:03:39.570Z,99089.18
2017-09-13T13:06:07.369Z,99086.02
2017-09-13T13:08:37.330Z,99096.86
2017-09-13T13:11:05.109Z,99097.72
2017-09-13T13:13:34.003Z,99088.09
2017-09-13T13:16:02.648Z,99065.60
2017-09-13T13:18:30.898Z,99074.03
2017-09-13T13:20:59.524Z,99077.05
2017-09-13T13:23:28.036Z,99083.88
2017-09-13T13:25:56.807Z,99082.66
2017-09-13T13:28:25.286Z,99077.02
2017-09-13T13:30:53.369Z,99056.13
2017-09-13T13:33:21.533Z,99067.18
2017-09-13T13:35:50.493Z,99083.27
2017-09-13T13:38:20.879Z,99084.88
2017-09-13T13:40:48.515Z,99066.80
2017-09-13T13:43:16.623Z,99069.55
2017-09-13T13:45:45.075Z,99080.59
2017-09-13T13:48:13.895Z,99083.25
2017-09-13T13:50:43.727Z,99085.25
2017-09-13T13:53:12.262Z,99093.30
2017-09-13T13:55:39.955Z,99096.53
2017-09-13T13:58:08.723Z,99092.32
2017-09-13T14:00:37.277Z,99085.88
2017-09-13T14:03:05.271Z,99080.64
2017-09-13T14:05:33.793Z,99089.06
2017-09-13T14:08:01.552Z,99090.84
2017-09-13T14:10:31.356Z,99088.29
2017-09-13T14:12:59.367Z,99097.73
2017-09-13T14:15:28.910Z,99086.84
2017-09-13T14:17:58.245Z,99106.89
2017-09-13T14:20:27.990Z,99121.33
2017-09-13T14:22:58.012Z,99122.90
2017-09-13T14:25:28.686Z,99125.29
2017-09-13T14:27:56.866Z,99132.50
2017-09-13T14:30:24.688Z,99140.69
2017-09-13T14:32:54.004Z,99150.62
2017-09-13T14:35:23.275Z,99148.30
2017-09-13T14:37:51.469Z,99156.61
2017-09-13T14:40:19.602Z,99148.12
2017-09-13T14:42:48.787Z,99144.16
2017-09-13T14:45:16.922Z,99144.34
2017-09-13T14:47:45.251Z,99144.62
2017-09-13T14:50:13.942Z,99143.06
2017-09-13T14:52:42.609Z,99123.48
2017-09-13T14:55:12.030Z,99117.14
2017-09-13T14:57:39.866Z,99119.37
2017-09-13T15:02:42.549Z,99109.37
2017-09-13T15:05:10.268Z,99119.57
2017-09-13T15:07:38.085Z,99131.80
2017-09-13T15:10:05.803Z,99142.19
2017-09-13T15:12:34.946Z,99145.34
2017-09-13T15:15:03.564Z,99140.88
2017-09-13T15:17:32.419Z,99151.25
2017-09-13T15:20:01.924Z,99157.98
2017-09-13T15:22:31.538Z,99165.66
2017-09-13T15:25:03.219Z,99140.41
2017-09-13T15:27:32.362Z,99155.52
2017-09-13T15:30:02.136Z,99161.18
2017-09-13T15:32:31.735Z,99161.86
2017-09-13T15:35:01.500Z,99157.16
2017-09-13T15:42:36.822Z,99154.36
2017-09-13T15:45:04.656Z,99150.70
2017-09-13T15:47:34.586Z,99150.89
2017-09-13T15:50:03.470Z,99157.46
2017-09-13T15:52:32.281Z,99153.44
2017-09-13T15:55:01.466Z,99149.45
2017-09-13T15:57:31.488Z,99163.52
2017-09-13T15:59:59.203Z,99154.73
2017-09-13T16:02:30.878Z,99173.59
2017-09-13T16:05:03.513Z,99194.02
2017-09-13T16:07:31.248Z,99183.16
2017-09-13T16:10:00.508Z,99207.30
2017-09-13T16:12:28.632Z,99198.42
2017-09-13T16:14:59.883Z,99200.19
2017-09-13T16:17:28.056Z,99205.75
2017-09-13T16:19:57.170Z,99229.71
2017-09-13T16:22:26.022Z,99209.55
2017-09-13T16:24:54.328Z,99216.69
2017-09-13T16:27:23.587Z,99177.44
2017-09-13T16:29:52.655Z,99203.55
2017-09-13T16:32:20.655Z,99202.38
2017-09-13T16:34:49.297Z,99184.97
2017-09-13T16:37:19.826Z,99194.47
2017-09-13T16:39:48.379Z,99195.48
2017-09-13T16:42:16.138Z,99202.58
2017-09-13T16:44:43.974Z,99198.02
2017-09-13T16:47:14.203Z,99201.18
2017-09-13T16:49:43.218Z,99206.97
2017-09-13T16:52:11.648Z,99211.13
2017-09-13T16:54:40.696Z,99224.22
2017-09-13T16:57:08.534Z,99225.37
2017-09-13T16:59:36.256Z,99220.20
2017-09-13T17:02:03.984Z,99215.76
2017-09-13T17:04:32.244Z,99217.66
2017-09-13T17:07:03.534Z,99217.20
2017-09-13T17:09:31.654Z,99235.32
2017-09-13T17:12:01.631Z,99234.67
2017-09-13T17:14:31.295Z,99239.42
2017-09-13T17:16:58.984Z,99254.44
2017-09-13T17:19:27.978Z,99256.45
2017-09-13T17:21:55.832Z,99243.39
2017-09-13T17:24:23.926Z,99267.73
2017-09-13T17:26:51.637Z,99264.96
2017-09-13T17:29:20.356Z,99258.22
2017-09-13T17:31:49.365Z,99267.70
2017-09-13T17:34:18.665Z,99270.42
2017-09-13T17:36:48.917Z,99279.95
2017-09-13T17:39:17.327Z,99302.94
2017-09-13T17:41:46.769Z,99294.21
2017-09-13T17:44:14.760Z,99290.16
2017-09-13T17:46:42.853Z,99297.97
2017-09-13T17:49:13.880Z,99297.50
2017-09-13T17:51:41.968Z,99274.56
2017-09-13T17:54:13.827Z,99283.59
2017-09-13T17:59:15.402Z,99298.80
2017-09-13T18:01:44.195Z,99296.22
2017-09-13T18:04:12.234Z,99316.73
2017-09-13T18:06:42.514Z,99330.63
2017-09-13T18:11:44.533Z,99328.50
2017-09-13T18:16:47.506Z,99337.46
2017-09-13T18:19:16.642Z,99327.05
2017-09-13T18:21:45.232Z,99332.37
2017-09-13T18:24:14.888Z,99332.88
2017-09-13T18:26:43.177Z,99337.26
2017-09-13T18:29:12.352Z,99339.03
2017-09-13T18:31:41.491Z,99331.81
2017-09-13T18:34:09.742Z,99327.69
2017-09-13T18:36:38.623Z,99336.51
2017-09-13T18:39:06.403Z,99341.52
2017-09-13T18:41:34.884Z,99337.41
2017-09-13T18:44:02.994Z,99333.39
2017-09-13T18:46:33.025Z,99329.52
2017-09-13T18:49:01.723Z,99333.81
2017-09-13T18:51:30.475Z,99333.22
2017-09-13T18:53:59.139Z,99331.13
2017-09-13T18:56:32.370Z,99336.66
2017-09-13T18:59:00.228Z,99332.73
2017-09-13T19:01:28.687Z,99337.77
2017-09-13T19:04:02.059Z,99323.97
2017-09-13T19:06:35.778Z,99332.09
2017-09-13T19:09:03.984Z,99337.22
2017-09-13T19:11:33.275Z,99338.50
2017-09-13T19:14:04.815Z,99333.52
2017-09-13T19:16:34.023Z,99338.36
2017-09-13T19:19:01.769Z,99340.65
2017-09-13T19:21:31.283Z,99345.09
2017-09-13T19:23:59.341Z,99337.06
2017-09-13T19:26:32.666Z,99339.45
2017-09-13T19:29:03.045Z,99332.16
2017-09-13T19:31:34.747Z,99332.96
2017-09-13T19:34:02.541Z,99334.64
2017-09-13T19:36:31.631Z,99327.70
2017-09-13T19:38:59.868Z,99337.16
2017-09-13T19:41:29.180Z,99342.62
2017-09-13T19:44:00.484Z,99326.50
2017-09-13T19:46:28.809Z,99329.55
2017-09-13T19:48:58.366Z,99335.38
2017-09-13T19:51:27.457Z,99344.86
2017-09-13T19:53:56.996Z,99332.25
2017-09-13T19:56:28.652Z,99342.02
2017-09-13T19:58:56.757Z,99344.68
2017-09-13T20:01:25.225Z,99348.45
2017-09-13T20:03:53.186Z,99351.52
2017-09-13T20:06:20.918Z,99351.39
2017-09-13T20:08:49.833Z,99354.52
2017-09-13T20:11:17.585Z,99347.22
2017-09-13T20:13:46.647Z,99356.05
2017-09-13T20:16:14.725Z,99359.16
2017-09-13T20:18:43.076Z,99356.84
2017-09-13T20:21:15.949Z,99358.80
2017-09-13T20:23:43.750Z,99357.00
2017-09-13T20:26:12.965Z,99357.84
2017-09-13T20:28:41.188Z,99351.26
2017-09-13T20:31:09.138Z,99355.63
2017-09-13T20:33:37.455Z,99355.05
2017-09-13T20:36:05.982Z,99351.64
2017-09-13T20:38:34.442Z,99350.78
2017-09-13T20:41:05.776Z,99361.16
2017-09-13T20:43:34.099Z,99353.09
2017-09-13T20:46:05.306Z,99360.06
2017-09-13T20:48:33.502Z,99353.17
2017-09-13T20:51:05.675Z,99357.37
2017-09-13T20:53:35.131Z,99350.96
2017-09-13T20:56:03.146Z,99349.23
2017-09-13T20:58:32.143Z,99350.50
2017-09-13T21:01:01.395Z,99351.77
2017-09-13T21:03:30.171Z,99347.34
2017-09-13T21:06:04.181Z,99354.21
2017-09-13T21:08:32.736Z,99357.16
2017-09-13T21:11:01.359Z,99354.52
2017-09-13T21:13:30.763Z,99359.17
2017-09-13T21:15:58.994Z,99355.28
2017-09-13T21:18:27.571Z,99358.64
2017-09-13T21:20:56.519Z,99364.12
2017-09-13T21:23:25.574Z,99361.73
2017-09-13T21:25:54.116Z,99363.01
2017-09-13T21:28:22.203Z,99370.55
2017-09-13T21:30:51.790Z,99371.23
2017-09-13T21:33:20.373Z,99375.91
2017-09-13T21:35:49.128Z,99370.26
2017-09-13T21:38:18.186Z,99381.31
2017-09-13T21:40:47.873Z,99375.20
2017-09-13T21:43:16.540Z,99366.28
2017-09-13T21:45:44.336Z,99377.94
2017-09-13T21:48:14.362Z,99379.95
2017-09-13T21:50:42.206Z,99381.77
2017-09-13T21:53:13.491Z,99383.78
2017-09-13T21:55:41.327Z,99384.05
2017-09-13T21:58:09.122Z,99387.05
2017-09-13T22:00:38.692Z,99379.59
2017-09-13T22:03:08.622Z,99375.52
2017-09-13T22:05:38.001Z,99377.41
2017-09-13T22:08:06.621Z,99379.77
2017-09-13T22:10:34.767Z,99386.80
2017-09-13T22:13:03.039Z,99377.59
2017-09-13T22:15:32.634Z,99381.58
2017-09-13T22:18:01.966Z,99376.34
2017-09-13T22:20:29.777Z,99373.34
2017-09-13T22:22:58.457Z,99378.17
2017-09-13T22:25:28.006Z,99373.34
2017-09-13T22:27:56.744Z,99370.42
2017-09-13T22:30:24.460Z,99370.92
2017-09-13T22:32:52.776Z,99363.91
2017-09-13T22:35:21.444Z,99365.21
2017-09-13T22:37:49.744Z,99354.63
2017-09-13T22:40:17.461Z,99360.64
2017-09-13T22:42:47.101Z,99359.05
2017-09-13T22:45:15.760Z,99360.35
2017-09-13T22:47:48.428Z,99364.34
2017-09-13T22:50:18.823Z,99353.48
2017-09-13T22:52:46.489Z,99356.13
2017-09-13T22:55:15.458Z,99358.25
2017-09-13T22:57:44.930Z,99353.25
2017-09-13T23:00:13.003Z,99361.77
2017-09-13T23:02:40.900Z,99353.60
2017-09-13T23:05:10.495Z,99356.80
2017-09-13T23:07:40.052Z,99354.09
2017-09-13T23:10:11.066Z,99348.45
2017-09-13T23:12:39.178Z,99349.61
2017-09-13T23:15:09.474Z,99364.77
2017-09-13T23:17:38.773Z,99357.67
2017-09-13T23:20:08.402Z,99359.21
2017-09-13T23:22:36.363Z,99367.76
2017-09-13T23:25:04.143Z,99369.13
2017-09-13T23:27:33.087Z,99362.61
2017-09-13T23:30:01.100Z,99379.05
2017-09-13T23:32:30.444Z,99374.55
2017-09-13T23:34:58.171Z,99377.11
2017-09-13T23:37:26.803Z,99371.90
2017-09-13T23:39:54.474Z,99369.86
2017-09-13T23:42:23.286Z,99377.59
2017-09-13T23:44:53.511Z,99380.47
2017-09-13T23:47:22.414Z,99365.34
2017-09-13T23:49:50.561Z,99373.22
2017-09-13T23:52:19.499Z,99379.73
2017-09-13T23:54:48.824Z,99368.97
2017-09-13T23:57:16.827Z,99372.61
2017-09-13T23:59:44.942Z,99383.34
